createdAt,value
2024-04-22T00:01:08.114Z,100946.03
2024-04-22T00:03:36.010Z,100946.06
2024-04-22T00:06:04.263Z,100940.78
2024-04-22T00:08:32.377Z,100952.03
2024-04-22T00:11:04.063Z,100948.50
2024-04-22T00:13:33.744Z,100938.91
2024-04-22T00:16:01.559Z,100944.16
2024-04-22T00:18:31.943Z,100944.16
2024-04-22T00:20:59.908Z,100936.38
2024-04-22T00:23:27.748Z,100939.81
2024-04-22T00:25:55.385Z,100944.09
2024-04-22T00:28:23.291Z,100943.28
2024-04-22T00:30:50.989Z,100944.16
2024-04-22T00:33:18.826Z,100939.75
2024-04-22T00:35:59.207Z,100939.81
2024-04-22T00:38:27.174Z,100932.00
2024-04-22T00:40:56.305Z,100932.88
2024-04-22T00:43:23.972Z,100937.16
2024-04-22T00:45:52.561Z,100948.50
2024-04-22T00:48:22.312Z,100950.91
2024-04-22T00:50:52.527Z,100957.63
2024-04-22T00:53:23.783Z,100959.22
2024-04-22T00:55:53.204Z,100965.22
2024-04-22T00:58:22.700Z,100964.19
2024-04-22T01:00:52.358Z,100966.06
2024-04-22T01:03:20.720Z,100957.38
2024-04-22T01:05:48.706Z,100956.53
2024-04-22T01:08:16.960Z,100980.81
2024-04-22T01:10:47.463Z,100994.03
2024-04-22T01:13:15.355Z,100995.81
2024-04-22T01:15:43.234Z,100966.41
2024-04-22T01:18:17.423Z,100966.34
2024-04-22T01:20:45.308Z,100985.34
2024-04-22T01:23:15.713Z,100993.31
2024-04-22T01:25:46.312Z,100987.38
2024-04-22T01:28:14.179Z,100972.50
2024-04-22T01:30:42.900Z,100967.16
2024-04-22T01:33:10.755Z,100980.03
2024-04-22T01:35:38.610Z,100984.53
2024-04-22T01:38:06.297Z,100971.50
2024-04-22T01:40:37.009Z,100966.91
2024-04-22T01:43:05.167Z,100969.31
2024-04-22T01:45:32.937Z,100977.88
2024-04-22T01:48:00.756Z,100978.72
2024-04-22T01:50:28.457Z,100971.97
2024-04-22T01:52:56.152Z,100966.75
2024-04-22T01:55:24.004Z,100969.41
2024-04-22T01:57:54.643Z,100971.16
2024-04-22T02:00:22.506Z,100972.31
2024-04-22T02:02:50.731Z,100967.09
2024-04-22T02:05:18.545Z,100976.63
2024-04-22T02:07:46.315Z,100978.47
2024-04-22T02:10:22.706Z,100968.97
2024-04-22T02:12:54.588Z,100975.03
2024-04-22T02:15:22.441Z,100974.97
2024-04-22T02:17:52.344Z,100976.78
2024-04-22T02:20:20.213Z,100981.06
2024-04-22T02:22:47.981Z,100987.94
2024-04-22T02:25:15.951Z,100992.31
2024-04-22T02:27:43.842Z,100990.56
2024-04-22T02:30:14.358Z,101002.81
2024-04-22T02:32:42.244Z,101007.25
2024-04-22T02:35:10.215Z,101001.28
2024-04-22T02:37:38.022Z,101016.03
2024-04-22T02:40:06.912Z,101020.41
2024-04-22T02:42:34.918Z,101023.06
2024-04-22T02:45:02.742Z,101018.72
2024-04-22T02:47:33.369Z,101012.59
2024-04-22T02:50:01.251Z,101021.94
2024-04-22T02:52:28.945Z,101025.34
2024-04-22T02:54:56.695Z,101024.44
2024-04-22T02:57:24.472Z,101024.56
2024-04-22T02:59:52.219Z,101017.59
2024-04-22T03:02:19.940Z,101032.31
2024-04-22T03:04:52.478Z,101028.75
2024-04-22T03:07:20.168Z,101036.50
2024-04-22T03:09:48.078Z,101040.00
2024-04-22T03:12:15.958Z,101035.66
2024-04-22T03:14:43.792Z,101051.25
2024-04-22T03:17:11.628Z,101055.59
2024-04-22T03:19:39.514Z,101059.13
2024-04-22T03:22:09.874Z,101070.34
2024-04-22T03:24:37.673Z,101079.03
2024-04-22T03:27:05.381Z,101085.88
2024-04-22T03:29:33.696Z,101071.84
2024-04-22T03:32:01.553Z,101062.13
2024-04-22T03:34:29.304Z,101062.91
2024-04-22T03:36:57.098Z,101055.00
2024-04-22T03:39:27.484Z,101058.38
2024-04-22T03:41:55.423Z,101054.84
2024-04-22T03:44:23.200Z,101054.00
2024-04-22T03:46:50.942Z,101061.88
2024-04-22T03:49:18.724Z,101067.00
2024-04-22T03:51:46.620Z,101070.41
2024-04-22T03:54:14.512Z,101070.44
2024-04-22T03:56:44.874Z,101077.25
2024-04-22T03:59:12.677Z,101077.06
2024-04-22T04:01:40.652Z,101076.09
2024-04-22T04:04:08.589Z,101077.72
2024-04-22T04:06:36.571Z,101080.25
2024-04-22T04:09:04.578Z,101083.66
2024-04-22T04:11:32.518Z,101093.97
2024-04-22T04:14:03.174Z,101096.56
2024-04-22T04:16:31.439Z,101092.19
2024-04-22T04:18:59.248Z,101104.19
2024-04-22T04:21:27.184Z,101098.94
2024-04-22T04:23:55.072Z,101104.81
2024-04-22T04:26:22.909Z,101104.63
2024-04-22T04:28:51.052Z,101100.97
2024-04-22T04:31:21.572Z,101098.25
2024-04-22T04:33:50.820Z,101106.81
2024-04-22T04:36:18.572Z,101098.94
2024-04-22T04:38:46.400Z,101097.91
2024-04-22T04:41:14.164Z,101099.53
2024-04-22T04:43:42.024Z,101095.03
2024-04-22T04:46:09.918Z,101107.13
2024-04-22T04:48:40.506Z,101106.09
2024-04-22T04:51:08.127Z,101094.63
2024-04-22T04:53:35.979Z,101092.91
2024-04-22T04:56:03.738Z,101087.59
2024-04-22T04:58:31.593Z,101092.72
2024-04-22T05:01:00.155Z,101092.69
2024-04-22T05:03:28.219Z,101095.13
2024-04-22T05:06:02.799Z,101082.84
2024-04-22T05:08:31.265Z,101074.03
2024-04-22T05:11:04.442Z,101069.63
2024-04-22T05:13:32.423Z,101088.63
2024-04-22T05:16:00.478Z,101088.56
2024-04-22T05:18:28.728Z,101082.53
2024-04-22T05:20:56.613Z,101098.09
2024-04-22T05:23:27.682Z,101086.66
2024-04-22T05:25:55.799Z,101092.63
2024-04-22T05:28:23.644Z,101089.09
2024-04-22T05:30:51.505Z,101097.78
2024-04-22T05:33:19.307Z,101083.72
2024-04-22T05:35:47.844Z,101102.84
2024-04-22T05:38:15.897Z,101095.88
2024-04-22T05:40:46.407Z,101101.13
2024-04-22T05:43:14.244Z,101103.72
2024-04-22T05:45:42.002Z,101105.50
2024-04-22T05:48:09.787Z,101117.66
2024-04-22T05:50:38.485Z,101111.50
2024-04-22T05:53:06.483Z,101114.19
2024-04-22T05:55:34.515Z,101119.34
2024-04-22T05:58:05.447Z,101117.44
2024-04-22T06:00:33.468Z,101115.59
2024-04-22T06:03:01.316Z,101117.25
2024-04-22T06:05:29.150Z,101117.94
2024-04-22T06:07:57.056Z,101128.19
2024-04-22T06:10:25.085Z,101127.13
2024-04-22T06:12:53.039Z,101128.72
2024-04-22T06:15:26.236Z,101140.69
2024-04-22T06:17:54.164Z,101140.41
2024-04-22T06:20:22.035Z,101148.91
2024-04-22T06:22:50.077Z,101146.91
2024-04-22T06:25:19.281Z,101145.84
2024-04-22T06:27:47.477Z,101171.16
2024-04-22T06:30:15.400Z,101164.00
2024-04-22T06:32:46.108Z,101176.22
2024-04-22T06:35:14.150Z,101176.16
2024-04-22T06:37:42.131Z,101185.72
2024-04-22T06:40:10.558Z,101198.75
2024-04-22T06:42:38.536Z,101199.66
2024-04-22T06:45:06.848Z,101199.66
2024-04-22T06:47:35.514Z,101211.00
2024-04-22T06:50:06.654Z,101220.53
2024-04-22T06:52:34.737Z,101230.25
2024-04-22T06:55:02.641Z,101218.06
2024-04-22T06:57:30.685Z,101224.97
2024-04-22T06:59:58.645Z,101218.94
2024-04-22T07:02:30.012Z,101225.16
2024-04-22T07:04:58.490Z,101217.09
2024-04-22T07:07:29.195Z,101231.41
2024-04-22T07:09:57.079Z,101262.84
2024-04-22T07:12:25.261Z,101265.59
2024-04-22T07:14:53.230Z,101262.09
2024-04-22T07:17:22.052Z,101264.72
2024-04-22T07:19:49.998Z,101268.13
2024-04-22T07:22:18.513Z,101267.22
2024-04-22T07:24:57.531Z,101263.69
2024-04-22T07:27:32.255Z,101262.72
2024-04-22T07:30:01.199Z,101263.59
2024-04-22T07:32:30.075Z,101260.94
2024-04-22T07:34:58.641Z,101263.59
2024-04-22T07:37:31.493Z,101265.22
2024-04-22T07:40:12.366Z,101266.88
2024-04-22T07:42:40.380Z,101259.75
2024-04-22T07:45:08.814Z,101265.00
2024-04-22T07:47:37.478Z,101261.47
2024-04-22T07:50:06.446Z,101259.53
2024-04-22T07:52:35.223Z,101255.03
2024-04-22T07:55:06.777Z,101245.53
2024-04-22T07:57:34.756Z,101248.91
2024-04-22T08:00:04.718Z,101245.19
2024-04-22T08:02:34.879Z,101241.72
2024-04-22T08:05:03.750Z,101245.16
2024-04-22T08:07:35.313Z,101245.03
2024-04-22T08:10:06.438Z,101233.53
2024-04-22T08:12:34.520Z,101249.16
2024-04-22T08:15:02.415Z,101245.03
2024-04-22T08:17:30.592Z,101242.56
2024-04-22T08:19:59.209Z,101246.84
2024-04-22T08:22:27.341Z,101259.97
2024-04-22T08:24:55.259Z,101248.81
2024-04-22T08:27:25.896Z,101243.69
2024-04-22T08:29:54.445Z,101255.00
2024-04-22T08:32:22.520Z,101251.78
2024-04-22T08:34:50.520Z,101247.66
2024-04-22T08:37:18.680Z,101246.97
2024-04-22T08:39:46.672Z,101229.94
2024-04-22T08:42:15.354Z,101242.94
2024-04-22T08:44:46.478Z,101258.72
2024-04-22T08:47:14.438Z,101266.13
2024-04-22T08:49:42.373Z,101273.34
2024-04-22T08:52:10.458Z,101279.78
2024-04-22T08:54:38.383Z,101280.09
2024-04-22T08:57:07.054Z,101292.97
2024-04-22T08:59:40.327Z,101288.13
2024-04-22T09:02:13.262Z,101288.31
2024-04-22T09:04:41.612Z,101295.44
2024-04-22T09:07:16.213Z,101306.81
2024-04-22T09:10:01.051Z,101308.56
2024-04-22T09:12:33.483Z,101312.03
2024-04-22T09:15:03.369Z,101312.84
2024-04-22T09:17:35.147Z,101313.53
2024-04-22T09:20:03.567Z,101312.66
2024-04-22T09:22:31.999Z,101299.69
2024-04-22T09:25:00.097Z,101311.25
2024-04-22T09:27:29.818Z,101294.03
2024-04-22T09:30:04.151Z,101313.72
2024-04-22T09:32:36.545Z,101309.34
2024-04-22T09:35:16.629Z,101279.84
2024-04-22T09:37:49.250Z,101306.78
2024-04-22T09:40:19.191Z,101305.84
2024-04-22T09:42:48.303Z,101304.72
2024-04-22T09:45:16.931Z,101296.88
2024-04-22T09:47:49.418Z,101298.53
2024-04-22T09:50:18.457Z,101293.38
2024-04-22T09:52:49.321Z,101293.09
2024-04-22T09:55:17.702Z,101294.88
2024-04-22T09:57:48.958Z,101294.75
2024-04-22T10:00:18.154Z,101289.59
2024-04-22T10:02:49.243Z,101298.00
2024-04-22T10:05:17.925Z,101292.69
2024-04-22T10:07:46.079Z,101290.28
2024-04-22T10:10:14.137Z,101293.69
2024-04-22T10:12:42.322Z,101302.91
2024-04-22T10:15:13.349Z,101306.53
2024-04-22T10:17:45.185Z,101302.22
2024-04-22T10:20:16.089Z,101311.66
2024-04-22T10:22:45.416Z,101308.03
2024-04-22T10:25:20.028Z,101307.22
2024-04-22T10:27:48.129Z,101301.38
2024-04-22T10:30:16.164Z,101290.19
2024-04-22T10:32:44.130Z,101301.28
2024-04-22T10:35:12.655Z,101295.06
2024-04-22T10:37:43.333Z,101294.84
2024-04-22T10:40:11.649Z,101287.88
2024-04-22T10:42:40.200Z,101286.47
2024-04-22T10:45:08.272Z,101291.81
2024-04-22T10:47:36.410Z,101282.91
2024-04-22T10:50:05.143Z,101294.34
2024-04-22T10:52:33.664Z,101283.81
2024-04-22T10:55:04.425Z,101276.00
2024-04-22T10:57:32.826Z,101278.34
2024-04-22T11:00:00.775Z,101272.78
2024-04-22T11:02:28.845Z,101275.03
2024-04-22T11:04:56.909Z,101277.47
2024-04-22T11:07:25.169Z,101275.59
2024-04-22T11:09:53.344Z,101262.03
2024-04-22T11:12:27.391Z,101270.94
2024-04-22T11:14:58.463Z,101270.13
2024-04-22T11:17:26.572Z,101281.44
2024-04-22T11:19:54.601Z,101268.78
2024-04-22T11:22:24.152Z,101269.41
2024-04-22T11:24:52.451Z,101266.16
2024-04-22T11:27:20.389Z,101261.03
2024-04-22T11:29:51.190Z,101263.59
2024-04-22T11:32:19.650Z,101247.72
2024-04-22T11:34:48.130Z,101255.44
2024-04-22T11:37:16.176Z,101255.31
2024-04-22T11:39:44.143Z,101249.13
2024-04-22T11:42:12.073Z,101248.06
2024-04-22T11:44:40.005Z,101244.56
2024-04-22T11:47:10.654Z,101242.91
2024-04-22T11:49:38.728Z,101238.50
2024-04-22T11:52:07.081Z,101237.81
2024-04-22T11:54:35.141Z,101230.31
2024-04-22T11:57:03.006Z,101227.69
2024-04-22T11:59:31.139Z,101234.59
2024-04-22T12:01:59.076Z,101209.72
2024-04-22T12:04:29.953Z,101214.69
2024-04-22T12:06:58.002Z,101221.72
2024-04-22T12:09:25.822Z,101227.75
2024-04-22T12:11:53.791Z,101223.38
2024-04-22T12:14:21.792Z,101239.13
2024-04-22T12:16:49.811Z,101249.72
2024-04-22T12:19:17.836Z,101241.75
2024-04-22T12:21:48.509Z,101253.16
2024-04-22T12:24:16.418Z,101248.53
2024-04-22T12:26:44.457Z,101255.59
2024-04-22T12:29:12.375Z,101251.91
2024-04-22T12:31:40.373Z,101254.72
2024-04-22T12:34:12.857Z,101253.97
2024-04-22T12:36:42.041Z,101261.06
2024-04-22T12:39:12.819Z,101268.00
2024-04-22T12:44:26.770Z,101263.16
2024-04-22T12:46:55.083Z,101269.47
2024-04-22T12:49:23.319Z,101264.31
2024-04-22T12:51:51.514Z,101273.25
2024-04-22T12:54:22.311Z,101267.22
2024-04-22T12:56:50.411Z,101269.88
2024-04-22T12:59:19.328Z,101283.91
2024-04-22T13:01:47.727Z,101281.41
2024-04-22T13:04:16.008Z,101273.56
2024-04-22T13:06:44.402Z,101287.50
2024-04-22T13:09:14.366Z,101285.84
2024-04-22T13:11:45.935Z,101293.78
2024-04-22T13:14:14.099Z,101293.81
2024-04-22T13:16:42.765Z,101306.81
2024-04-22T13:19:10.817Z,101295.47
2024-04-22T13:21:39.089Z,101293.69
2024-04-22T13:24:07.623Z,101300.72
2024-04-22T13:26:35.689Z,101281.66
2024-04-22T13:29:07.539Z,101310.28
2024-04-22T13:31:43.673Z,101299.19
2024-04-22T13:34:18.031Z,101306.81
2024-04-22T13:36:47.781Z,101300.53
2024-04-22T13:39:16.959Z,101303.34
2024-04-22T13:41:45.141Z,101313.88
2024-04-22T13:44:16.143Z,101299.88
2024-04-22T13:46:44.366Z,101316.38
2024-04-22T13:49:12.523Z,101311.00
2024-04-22T13:51:40.720Z,101311.00
2024-04-22T13:54:08.922Z,101316.97
2024-04-22T13:56:37.293Z,101322.31
2024-04-22T13:59:05.422Z,101310.16
2024-04-22T14:01:39.772Z,101332.09
2024-04-22T14:04:08.115Z,101326.16
2024-04-22T14:06:36.263Z,101331.34
2024-04-22T14:09:04.543Z,101319.19
2024-04-22T14:11:33.097Z,101321.75
2024-04-22T14:14:01.258Z,101331.25
2024-04-22T14:16:36.975Z,101323.56
2024-04-22T14:19:07.943Z,101325.22
2024-04-22T14:21:36.030Z,101324.44
2024-04-22T14:24:05.471Z,101321.03
2024-04-22T14:26:33.812Z,101319.16
2024-04-22T14:29:02.096Z,101319.06
2024-04-22T14:31:30.238Z,101322.59
2024-04-22T14:33:58.283Z,101327.00
2024-04-22T14:36:29.056Z,101332.19
2024-04-22T14:38:57.165Z,101328.59
2024-04-22T14:41:25.455Z,101325.16
2024-04-22T14:43:53.819Z,101326.88
2024-04-22T14:46:22.095Z,101334.78
2024-04-22T14:48:50.147Z,101328.59
2024-04-22T14:51:18.200Z,101332.00
2024-04-22T14:53:50.626Z,101334.56
2024-04-22T14:56:18.587Z,101343.31
2024-04-22T14:58:46.736Z,101339.78
2024-04-22T15:01:16.146Z,101346.03
2024-04-22T15:03:44.586Z,101351.34
2024-04-22T15:06:12.644Z,101347.78
2024-04-22T15:08:41.061Z,101350.41
2024-04-22T15:11:12.944Z,101343.53
2024-04-22T15:13:41.121Z,101347.91
2024-04-22T15:16:09.398Z,101345.25
2024-04-22T15:18:37.891Z,101349.69
2024-04-22T15:21:06.312Z,101350.50
2024-04-22T15:23:34.382Z,101356.69
2024-04-22T15:26:02.557Z,101355.84
2024-04-22T15:28:33.389Z,101352.31
2024-04-22T15:31:04.682Z,101346.13
2024-04-22T15:33:34.288Z,101347.91
2024-04-22T15:36:11.836Z,101340.97
2024-04-22T15:38:40.300Z,101350.53
2024-04-22T15:41:12.106Z,101350.47
2024-04-22T15:43:42.676Z,101355.75
2024-04-22T15:46:11.242Z,101359.25
2024-04-22T15:48:39.275Z,101361.84
2024-04-22T15:51:07.262Z,101359.34
2024-04-22T15:53:35.505Z,101360.13
2024-04-22T15:56:04.412Z,101363.69
2024-04-22T15:58:32.768Z,101346.31
2024-04-22T16:01:03.547Z,101360.19
2024-04-22T16:03:31.796Z,101356.78
2024-04-22T16:06:00.110Z,101370.75
2024-04-22T16:08:30.403Z,101362.97
2024-04-22T16:10:59.871Z,101372.50
2024-04-22T16:13:28.068Z,101384.69
2024-04-22T16:15:56.230Z,101381.25
2024-04-22T16:18:27.013Z,101381.25
2024-04-22T16:21:01.342Z,101382.16
2024-04-22T16:23:33.119Z,101386.47
2024-04-22T16:26:01.374Z,101391.72
2024-04-22T16:28:29.758Z,101387.34
2024-04-22T16:30:57.851Z,101387.28
2024-04-22T16:33:28.572Z,101386.47
2024-04-22T16:35:56.783Z,101379.66
2024-04-22T16:38:25.202Z,101386.56
2024-04-22T16:40:53.478Z,101391.75
2024-04-22T16:43:22.308Z,101389.16
2024-04-22T16:45:50.507Z,101389.16
2024-04-22T16:48:20.939Z,101393.53
2024-04-22T16:50:53.420Z,101390.97
2024-04-22T16:53:21.587Z,101405.78
2024-04-22T16:55:49.719Z,101413.66
2024-04-22T16:58:18.168Z,101410.16
2024-04-22T17:00:46.349Z,101419.72
2024-04-22T17:03:14.424Z,101422.34
2024-04-22T17:05:44.460Z,101422.34
2024-04-22T17:08:16.225Z,101426.72
2024-04-22T17:10:45.347Z,101423.19
2024-04-22T17:13:13.636Z,101425.78
2024-04-22T17:15:41.879Z,101431.06
2024-04-22T17:18:10.355Z,101422.34
2024-04-22T17:20:38.446Z,101427.56
2024-04-22T17:23:19.517Z,101431.03
2024-04-22T17:25:47.625Z,101438.06
2024-04-22T17:28:15.848Z,101429.38
2024-04-22T17:30:43.943Z,101445.00
2024-04-22T17:33:12.317Z,101443.31
2024-04-22T17:35:40.339Z,101447.69
2024-04-22T17:38:08.452Z,101459.03
2024-04-22T17:40:39.314Z,101459.97
2024-04-22T17:43:07.771Z,101466.06
2024-04-22T17:45:35.788Z,101459.94
2024-04-22T17:48:04.081Z,101470.47
2024-04-22T17:50:37.506Z,101474.75
2024-04-22T17:53:06.182Z,101474.75
2024-04-22T17:55:34.361Z,101476.53
2024-04-22T17:58:05.385Z,101492.25
2024-04-22T18:00:33.552Z,101490.47
2024-04-22T18:03:01.682Z,101494.88
2024-04-22T18:05:29.934Z,101496.59
2024-04-22T18:07:58.163Z,101499.22
2024-04-22T18:10:26.551Z,101504.44
2024-04-22T18:12:54.548Z,101499.22
2024-04-22T18:15:25.418Z,101500.97
2024-04-22T18:17:54.019Z,101500.06
2024-04-22T18:20:23.194Z,101492.22
2024-04-22T18:22:51.509Z,101506.22
2024-04-22T18:25:20.961Z,101502.75
2024-04-22T18:27:49.571Z,101504.53
2024-04-22T18:30:17.931Z,101513.31
2024-04-22T18:32:49.499Z,101507.16
2024-04-22T18:35:17.289Z,101504.53
2024-04-22T18:37:45.612Z,101510.69
2024-04-22T18:40:14.135Z,101518.63
2024-04-22T18:42:42.283Z,101516.06
2024-04-22T18:45:10.433Z,101518.75
2024-04-22T18:47:38.644Z,101531.88
2024-04-22T18:50:10.043Z,101520.47
2024-04-22T18:52:38.557Z,101524.94
2024-04-22T18:55:08.013Z,101530.13
2024-04-22T18:57:36.324Z,101534.56
2024-04-22T19:00:04.939Z,101525.06
2024-04-22T19:02:33.370Z,101527.75
2024-04-22T19:05:02.214Z,101527.88
2024-04-22T19:07:34.365Z,101522.69
2024-04-22T19:10:02.793Z,101538.38
2024-04-22T19:12:31.308Z,101528.84
2024-04-22T19:14:59.461Z,101531.47
2024-04-22T19:17:28.149Z,101533.31
2024-04-22T19:19:56.600Z,101538.53
2024-04-22T19:22:25.018Z,101543.03
2024-04-22T19:25:01.307Z,101550.81
2024-04-22T19:27:29.836Z,101541.25
2024-04-22T19:29:58.135Z,101554.31
2024-04-22T19:32:26.564Z,101563.06
2024-04-22T19:34:54.718Z,101569.16
2024-04-22T19:37:22.786Z,101573.50
2024-04-22T19:39:51.246Z,101570.88
2024-04-22T19:42:22.162Z,101568.25
2024-04-22T19:44:50.326Z,101568.19
2024-04-22T19:47:18.849Z,101572.47
2024-04-22T19:49:46.932Z,101565.41
2024-04-22T19:52:15.299Z,101565.44
2024-04-22T19:54:43.374Z,101561.91
2024-04-22T19:57:11.490Z,101560.16
2024-04-22T19:59:42.157Z,101559.25
2024-04-22T20:02:10.218Z,101561.91
2024-04-22T20:04:40.169Z,101555.84
2024-04-22T20:07:08.492Z,101552.41
2024-04-22T20:09:36.708Z,101568.06
2024-04-22T20:12:05.463Z,101563.75
2024-04-22T20:14:33.635Z,101572.47
2024-04-22T20:17:04.760Z,101580.38
2024-04-22T20:19:32.807Z,101583.84
2024-04-22T20:22:00.794Z,101577.75
2024-04-22T20:24:28.882Z,101580.38
2024-04-22T20:26:56.813Z,101576.91
2024-04-22T20:29:25.109Z,101569.94
2024-04-22T20:31:53.498Z,101586.53
2024-04-22T20:34:24.639Z,101575.25
2024-04-22T20:36:52.921Z,101580.53
2024-04-22T20:39:21.609Z,101580.59
2024-04-22T20:41:49.642Z,101592.81
2024-04-22T20:44:18.586Z,101584.25
2024-04-22T20:46:48.988Z,101590.34
2024-04-22T20:49:17.349Z,101593.94
2024-04-22T20:51:48.014Z,101605.38
2024-04-22T20:54:15.844Z,101604.56
2024-04-22T20:56:43.808Z,101596.69
2024-04-22T20:59:12.558Z,101608.84
2024-04-22T21:01:40.573Z,101608.03
2024-04-22T21:04:08.466Z,101607.28
2024-04-22T21:06:36.356Z,101619.53
2024-04-22T21:09:07.088Z,101625.63
2024-04-22T21:11:35.034Z,101629.13
2024-04-22T21:14:04.156Z,101630.94
2024-04-22T21:16:32.303Z,101622.22
2024-04-22T21:19:07.722Z,101618.72
2024-04-22T21:21:43.495Z,101631.81
2024-04-22T21:24:15.058Z,101630.94
2024-04-22T21:26:44.948Z,101623.13
2024-04-22T21:29:16.216Z,101628.38
2024-04-22T21:31:44.022Z,101643.19
2024-04-22T21:34:11.861Z,101638.84
2024-04-22T21:36:39.740Z,101640.59
2024-04-22T21:39:07.514Z,101647.56
2024-04-22T21:41:37.962Z,101650.16
2024-04-22T21:44:06.252Z,101654.53
2024-04-22T21:46:46.152Z,101666.69
2024-04-22T21:49:13.934Z,101666.72
2024-04-22T21:51:41.719Z,101668.44
2024-04-22T21:54:09.383Z,101661.47
2024-04-22T21:56:36.935Z,101668.44
2024-04-22T21:59:41.876Z,101661.50
2024-04-22T22:02:46.768Z,101658.00
2024-04-22T22:05:51.631Z,101658.81
2024-04-22T22:08:19.193Z,101662.31
2024-04-22T22:11:12.347Z,101662.28
2024-04-22T22:14:00.000Z,101661.41
2024-04-22T22:16:27.695Z,101664.03
2024-04-22T22:18:55.489Z,101657.94
2024-04-22T22:21:24.918Z,101659.69
2024-04-22T22:23:56.735Z,101650.09
2024-04-22T22:26:29.110Z,101655.34
2024-04-22T22:28:56.963Z,101651.00
2024-04-22T22:31:29.885Z,101649.22
2024-04-22T22:33:57.801Z,101641.31
2024-04-22T22:36:25.754Z,101641.38
2024-04-22T22:38:53.691Z,101634.41
2024-04-22T22:41:21.637Z,101650.91
2024-04-22T22:43:52.527Z,101637.00
2024-04-22T22:46:20.739Z,101632.66
2024-04-22T22:48:48.617Z,101645.72
2024-04-22T22:51:16.255Z,101646.63
2024-04-22T22:53:44.053Z,101644.88
2024-04-22T22:56:11.954Z,101652.72
2024-04-22T22:58:49.103Z,101650.13
2024-04-22T23:01:19.685Z,101644.84
2024-04-22T23:03:47.627Z,101657.84
2024-04-22T23:06:15.556Z,101650.88
2024-04-22T23:08:43.650Z,101654.34
2024-04-22T23:11:11.581Z,101649.94
2024-04-22T23:13:39.340Z,101658.69
2024-04-22T23:16:09.340Z,101651.72
2024-04-22T23:18:40.107Z,101654.34
2024-04-22T23:21:08.754Z,101651.78
2024-04-22T23:23:36.821Z,101660.47
2024-04-22T23:26:08.214Z,101663.97
2024-04-22T23:28:36.256Z,101660.50
2024-04-22T23:31:04.160Z,101658.75
2024-04-22T23:33:36.052Z,101667.44
2024-04-22T23:36:07.382Z,101678.69
2024-04-22T23:38:35.110Z,101677.78
2024-04-22T23:41:02.957Z,101660.28
2024-04-22T23:43:30.919Z,101669.81
2024-04-22T23:45:58.625Z,101669.81
2024-04-22T23:48:31.198Z,101672.38
2024-04-22T23:50:59.009Z,101681.94
2024-04-22T23:53:29.447Z,101673.19
2024-04-22T23:55:57.844Z,101672.31
2024-04-22T23:58:25.553Z,101681.78
